createdAt,value
2022-12-20T00:00:09.166Z,5.04
2022-12-20T00:02:35.716Z,5.04
2022-12-20T00:05:02.369Z,5.07
2022-12-20T00:07:28.856Z,5.24
2022-12-20T00:09:55.260Z,5.46
2022-12-20T00:12:21.714Z,5.62
2022-12-20T00:14:48.028Z,5.51
2022-12-20T00:17:14.586Z,6.02
2022-12-20T00:19:40.988Z,5.80
2022-12-20T00:22:07.400Z,5.83
2022-12-20T00:24:33.795Z,5.98
2022-12-20T00:27:00.379Z,5.78
2022-12-20T00:29:26.834Z,5.54
2022-12-20T00:31:53.444Z,5.87
2022-12-20T00:34:19.954Z,6.14
2022-12-20T00:36:46.429Z,5.87
2022-12-20T00:39:13.230Z,5.53
2022-12-20T00:41:39.654Z,5.66
2022-12-20T00:44:06.034Z,5.53
2022-12-20T00:46:32.831Z,5.55
2022-12-20T00:48:59.357Z,5.42
2022-12-20T00:51:29.284Z,5.58
2022-12-20T00:53:56.199Z,5.79
2022-12-20T00:56:23.224Z,5.85
2022-12-20T00:58:52.271Z,5.71
2022-12-20T01:01:22.101Z,6.23
2022-12-20T01:03:50.064Z,5.94
2022-12-20T01:06:17.516Z,6.03
2022-12-20T01:08:44.093Z,6.16
2022-12-20T01:11:13.153Z,5.88
2022-12-20T01:13:42.953Z,5.85
2022-12-20T01:16:13.706Z,5.76
2022-12-20T01:18:40.274Z,6.02
2022-12-20T01:21:09.397Z,6.19
2022-12-20T01:23:36.248Z,6.56
2022-12-20T01:26:04.352Z,6.59
2022-12-20T01:28:31.995Z,6.40
2022-12-20T01:30:58.499Z,5.96
2022-12-20T01:33:24.931Z,6.28
2022-12-20T01:35:59.079Z,6.32
2022-12-20T01:38:26.007Z,6.36
2022-12-20T01:40:54.083Z,6.15
2022-12-20T01:43:21.575Z,6.20
2022-12-20T01:45:48.237Z,5.81
2022-12-20T01:48:18.304Z,5.60
2022-12-20T01:50:46.831Z,5.89
2022-12-20T01:53:13.756Z,6.01
2022-12-20T01:55:40.552Z,5.93
2022-12-20T01:58:10.976Z,6.02
2022-12-20T02:00:37.563Z,5.79
2022-12-20T02:03:08.270Z,5.59
2022-12-20T02:05:38.211Z,5.75
2022-12-20T02:08:06.413Z,5.60
2022-12-20T02:10:51.199Z,5.66
2022-12-20T02:13:44.539Z,5.81
2022-12-20T02:16:19.504Z,5.63
2022-12-20T02:19:10.769Z,5.45
2022-12-20T02:21:45.914Z,5.40
2022-12-20T02:24:21.204Z,5.50
2022-12-20T02:27:04.303Z,5.50
2022-12-20T02:29:37.164Z,6.14
2022-12-20T02:32:12.695Z,6.14
2022-12-20T02:34:40.258Z,6.13
2022-12-20T02:37:06.662Z,6.51
2022-12-20T02:39:34.163Z,6.38
2022-12-20T02:42:13.984Z,6.44
2022-12-20T02:44:52.575Z,6.65
2022-12-20T02:47:26.968Z,6.44
2022-12-20T02:49:55.469Z,6.38
2022-12-20T02:52:25.572Z,6.47
2022-12-20T02:54:54.138Z,6.58
2022-12-20T02:57:28.737Z,6.45
2022-12-20T03:00:10.118Z,6.63
2022-12-20T03:02:38.112Z,6.31
2022-12-20T03:05:06.155Z,6.44
2022-12-20T03:07:34.168Z,6.40
2022-12-20T03:10:00.602Z,6.49
2022-12-20T03:12:27.105Z,6.41
2022-12-20T03:14:53.464Z,6.18
2022-12-20T03:17:19.951Z,6.51
2022-12-20T03:19:46.537Z,6.48
2022-12-20T03:22:12.866Z,6.20
2022-12-20T03:24:39.782Z,6.18
2022-12-20T03:27:06.174Z,6.29
2022-12-20T03:29:32.553Z,6.42
2022-12-20T03:31:58.995Z,6.37
2022-12-20T03:34:25.346Z,6.80
2022-12-20T03:36:51.929Z,6.77
2022-12-20T03:39:18.422Z,6.66
2022-12-20T03:41:44.834Z,6.58
2022-12-20T03:44:11.246Z,6.53
2022-12-20T03:46:38.147Z,6.90
2022-12-20T03:49:04.711Z,6.98
2022-12-20T03:51:31.454Z,6.93
2022-12-20T03:57:20.169Z,7.10
2022-12-20T03:59:46.501Z,7.05
2022-12-20T04:02:13.045Z,7.07
2022-12-20T04:04:39.440Z,6.84
2022-12-20T04:07:05.851Z,6.89
2022-12-20T04:09:32.185Z,7.02
2022-12-20T04:11:58.596Z,7.12
2022-12-20T04:14:24.899Z,7.12
2022-12-20T04:16:51.404Z,6.83
2022-12-20T04:19:17.848Z,7.10
2022-12-20T04:21:44.384Z,7.03
2022-12-20T04:24:10.795Z,7.05
2022-12-20T04:26:37.496Z,6.84
2022-12-20T04:29:04.185Z,7.01
2022-12-20T04:31:30.612Z,6.86
2022-12-20T04:33:57.090Z,6.98
2022-12-20T04:36:23.514Z,7.03
2022-12-20T04:38:49.955Z,6.78
2022-12-20T04:41:16.574Z,6.36
2022-12-20T04:43:42.915Z,6.31
2022-12-20T04:46:09.370Z,6.46
2022-12-20T04:48:56.479Z,6.16
2022-12-20T04:51:22.239Z,6.15
2022-12-20T04:53:48.741Z,6.02
2022-12-20T04:56:24.810Z,6.18
2022-12-20T04:58:53.392Z,6.70
2022-12-20T05:01:20.354Z,6.36
2022-12-20T05:03:47.777Z,6.45
2022-12-20T05:06:14.553Z,6.44
2022-12-20T05:08:41.282Z,6.56
2022-12-20T05:11:08.134Z,6.66
2022-12-20T05:13:34.649Z,6.51
2022-12-20T05:16:01.739Z,6.54
2022-12-20T05:18:28.609Z,6.41
2022-12-20T05:20:59.760Z,6.49
2022-12-20T05:23:26.233Z,6.98
2022-12-20T05:25:53.796Z,6.82
2022-12-20T05:28:20.223Z,6.56
2022-12-20T05:30:46.567Z,6.40
2022-12-20T05:33:13.142Z,6.40
2022-12-20T05:35:39.523Z,6.63
2022-12-20T05:38:05.878Z,6.59
2022-12-20T05:40:32.300Z,7.00
2022-12-20T05:42:58.732Z,6.99
2022-12-20T05:45:25.137Z,7.01
2022-12-20T05:47:51.501Z,6.73
2022-12-20T05:50:19.286Z,7.12
2022-12-20T05:52:45.842Z,6.85
2022-12-20T05:55:12.363Z,6.67
2022-12-20T05:57:38.776Z,6.75
2022-12-20T06:00:06.067Z,7.08
2022-12-20T06:02:32.803Z,7.03
2022-12-20T06:04:59.710Z,6.69
2022-12-20T06:07:26.739Z,7.34
2022-12-20T06:09:53.203Z,6.93
2022-12-20T06:12:19.651Z,6.87
2022-12-20T06:14:46.193Z,6.70
2022-12-20T06:17:12.770Z,6.76
2022-12-20T06:19:39.525Z,6.82
2022-12-20T06:22:06.194Z,6.84
2022-12-20T06:24:32.551Z,6.82
2022-12-20T06:26:58.957Z,6.74
2022-12-20T06:29:25.407Z,6.87
2022-12-20T06:31:52.208Z,7.34
2022-12-20T06:34:19.213Z,6.89
2022-12-20T06:36:45.739Z,6.66
2022-12-20T06:39:12.862Z,6.94
2022-12-20T06:41:40.561Z,6.88
2022-12-20T06:44:07.800Z,6.71
2022-12-20T06:46:34.410Z,7.13
2022-12-20T06:49:00.861Z,6.90
2022-12-20T06:51:27.222Z,7.31
2022-12-20T06:53:53.640Z,6.81
2022-12-20T06:56:20.044Z,6.87
2022-12-20T06:58:46.503Z,6.66
2022-12-20T07:01:13.283Z,7.29
2022-12-20T07:03:40.019Z,7.11
2022-12-20T07:06:06.683Z,6.99
2022-12-20T07:08:33.114Z,6.85
2022-12-20T07:11:08.519Z,7.18
2022-12-20T07:13:35.083Z,7.17
2022-12-20T07:16:03.946Z,7.15
2022-12-20T07:18:30.426Z,7.23
2022-12-20T07:21:01.687Z,7.06
2022-12-20T07:23:28.459Z,7.34
2022-12-20T07:25:59.315Z,7.31
2022-12-20T07:28:26.648Z,6.97
2022-12-20T07:30:54.447Z,7.07
2022-12-20T07:33:21.141Z,6.97
2022-12-20T07:35:53.990Z,7.19
2022-12-20T07:38:20.940Z,7.38
2022-12-20T07:40:47.474Z,7.31
2022-12-20T07:43:13.824Z,7.77
2022-12-20T07:45:40.343Z,7.28
2022-12-20T07:48:11.398Z,6.99
2022-12-20T07:50:41.248Z,7.14
2022-12-20T07:53:09.398Z,6.97
2022-12-20T07:55:38.018Z,6.79
2022-12-20T07:58:08.408Z,6.97
2022-12-20T08:00:35.899Z,7.13
2022-12-20T08:03:16.613Z,7.71
2022-12-20T08:05:48.671Z,7.16
2022-12-20T08:08:15.972Z,7.39
2022-12-20T08:10:42.535Z,7.26
2022-12-20T08:13:09.487Z,7.23
2022-12-20T08:15:36.800Z,7.55
2022-12-20T08:18:03.637Z,7.59
2022-12-20T08:20:29.991Z,7.32
2022-12-20T08:22:56.500Z,7.12
2022-12-20T08:25:23.641Z,7.15
2022-12-20T08:27:50.173Z,6.99
2022-12-20T08:30:17.135Z,7.31
2022-12-20T08:32:43.510Z,7.80
2022-12-20T08:35:10.493Z,7.53
2022-12-20T08:37:37.047Z,7.54
2022-12-20T08:40:04.309Z,7.45
2022-12-20T08:42:30.896Z,7.94
2022-12-20T08:44:57.311Z,7.70
2022-12-20T08:47:23.689Z,7.94
2022-12-20T08:49:50.317Z,8.10
2022-12-20T08:52:16.651Z,8.17
2022-12-20T08:54:42.978Z,8.46
2022-12-20T08:57:09.383Z,8.80
2022-12-20T08:59:35.731Z,8.38
2022-12-20T09:02:02.446Z,8.29
2022-12-20T09:04:28.977Z,8.78
2022-12-20T09:06:55.297Z,8.48
2022-12-20T09:09:21.691Z,8.87
2022-12-20T09:11:48.113Z,8.85
2022-12-20T09:14:14.476Z,8.73
2022-12-20T09:16:41.026Z,8.63
2022-12-20T09:19:07.460Z,8.69
2022-12-20T09:21:34.932Z,8.88
2022-12-20T09:24:01.588Z,8.73
2022-12-20T09:26:27.898Z,8.91
2022-12-20T09:28:54.627Z,9.03
2022-12-20T09:31:24.075Z,9.02
2022-12-20T09:33:54.211Z,9.24
2022-12-20T09:36:23.776Z,9.51
2022-12-20T09:38:50.373Z,9.76
2022-12-20T09:41:25.853Z,9.97
2022-12-20T09:43:52.140Z,10.28
2022-12-20T09:46:18.896Z,10.66
2022-12-20T09:48:47.502Z,10.56
2022-12-20T09:51:27.865Z,10.66
2022-12-20T09:54:16.058Z,10.11
2022-12-20T09:56:54.565Z,10.29
2022-12-20T09:59:21.002Z,9.89
2022-12-20T10:01:49.840Z,9.77
2022-12-20T10:04:23.395Z,9.72
2022-12-20T10:07:14.438Z,9.55
2022-12-20T10:10:21.543Z,9.56
2022-12-20T10:13:14.028Z,9.60
2022-12-20T10:15:52.964Z,9.56
2022-12-20T10:18:22.246Z,9.45
2022-12-20T10:21:03.892Z,9.95
2022-12-20T10:24:00.297Z,10.76
2022-12-20T10:26:26.812Z,11.70
2022-12-20T10:28:54.638Z,11.38
2022-12-20T10:31:21.585Z,11.31
2022-12-20T10:33:48.078Z,10.88
2022-12-20T10:36:27.242Z,10.81
2022-12-20T10:38:56.638Z,11.42
2022-12-20T10:41:32.323Z,12.14
2022-12-20T10:44:03.107Z,12.28
2022-12-20T10:46:43.128Z,12.15
2022-12-20T10:49:30.933Z,12.22
2022-12-20T10:52:01.033Z,11.70
2022-12-20T10:54:39.399Z,11.20
2022-12-20T10:57:26.274Z,11.23
2022-12-20T11:00:00.984Z,11.03
2022-12-20T11:02:39.951Z,10.47
2022-12-20T11:05:10.666Z,10.29
2022-12-20T11:08:24.541Z,10.34
2022-12-20T11:10:37.501Z,10.37
2022-12-20T11:13:04.487Z,10.02
2022-12-20T11:15:34.801Z,10.24
2022-12-20T11:18:38.139Z,10.21
2022-12-20T11:21:17.689Z,10.08
2022-12-20T11:23:58.436Z,10.06
2022-12-20T11:26:38.636Z,9.77
2022-12-20T11:29:48.817Z,9.62
2022-12-20T11:32:44.665Z,9.52
2022-12-20T11:35:28.062Z,9.67
2022-12-20T11:38:10.184Z,9.72
2022-12-20T11:40:53.621Z,9.67
2022-12-20T11:44:23.809Z,9.73
2022-12-20T11:47:08.958Z,9.63
2022-12-20T11:49:35.342Z,9.32
2022-12-20T11:52:02.417Z,9.23
2022-12-20T11:54:34.827Z,9.12
2022-12-20T11:57:14.033Z,8.80
2022-12-20T11:59:47.709Z,8.73
2022-12-20T12:02:21.973Z,9.06
2022-12-20T12:04:56.848Z,8.82
2022-12-20T12:07:28.717Z,8.85
2022-12-20T12:10:15.863Z,8.85
2022-12-20T12:12:48.621Z,8.95
2022-12-20T12:15:17.034Z,8.78
2022-12-20T12:18:07.511Z,8.80
2022-12-20T12:20:48.795Z,8.89
2022-12-20T12:23:27.740Z,8.86
2022-12-20T12:25:54.150Z,8.86
2022-12-20T12:28:22.743Z,8.63
2022-12-20T12:30:56.802Z,9.01
2022-12-20T12:33:38.129Z,9.08
2022-12-20T12:36:26.437Z,8.47
2022-12-20T12:39:21.848Z,8.42
2022-12-20T12:41:54.205Z,8.05
2022-12-20T12:44:47.224Z,8.10
2022-12-20T12:47:52.875Z,7.94
2022-12-20T12:50:33.423Z,8.19
2022-12-20T12:53:17.267Z,7.97
2022-12-20T12:55:49.541Z,8.26
2022-12-20T12:58:36.225Z,8.07
2022-12-20T13:01:08.284Z,7.92
2022-12-20T13:03:36.745Z,8.60
2022-12-20T13:06:24.955Z,8.60
2022-12-20T13:09:00.689Z,8.31
2022-12-20T13:11:32.978Z,8.29
2022-12-20T13:14:17.656Z,8.38
2022-12-20T13:19:35.189Z,8.32
2022-12-20T13:22:04.298Z,8.46
2022-12-20T13:24:46.067Z,8.32
2022-12-20T13:27:21.253Z,8.16
2022-12-20T13:30:04.560Z,8.05
2022-12-20T13:32:49.256Z,7.95
2022-12-20T13:35:24.655Z,8.20
2022-12-20T13:37:59.973Z,8.15
2022-12-20T13:40:42.470Z,8.11
2022-12-20T13:43:25.751Z,8.36
2022-12-20T13:46:04.800Z,8.08
2022-12-20T13:48:46.432Z,8.35
2022-12-20T13:51:27.654Z,8.20
2022-12-20T13:53:56.791Z,8.32
2022-12-20T13:56:46.857Z,8.32
2022-12-20T13:59:18.648Z,8.31
2022-12-20T14:01:51.089Z,8.39
2022-12-20T14:04:20.813Z,8.38
2022-12-20T14:06:57.964Z,8.26
2022-12-20T14:09:38.270Z,8.25
2022-12-20T14:12:23.298Z,8.58
2022-12-20T14:14:53.178Z,8.19
2022-12-20T14:17:26.478Z,8.04
2022-12-20T14:20:29.112Z,8.17
2022-12-20T14:23:00.776Z,8.24
2022-12-20T14:25:43.060Z,8.15
2022-12-20T14:28:28.928Z,8.08
2022-12-20T14:30:56.213Z,8.14
2022-12-20T14:33:40.956Z,8.12
2022-12-20T14:36:17.624Z,8.15
2022-12-20T14:38:49.641Z,8.36
2022-12-20T14:41:32.526Z,8.29
2022-12-20T14:44:03.617Z,7.98
2022-12-20T14:46:31.299Z,7.78
2022-12-20T14:49:18.507Z,7.75
2022-12-20T14:51:46.607Z,7.74
2022-12-20T14:57:27.801Z,8.19
2022-12-20T15:00:20.341Z,7.80
2022-12-20T15:02:55.729Z,7.84
2022-12-20T15:05:34.375Z,8.05
2022-12-20T15:08:34.083Z,7.85
2022-12-20T15:11:10.416Z,7.88
2022-12-20T15:13:37.960Z,7.83
2022-12-20T15:16:16.124Z,8.02
2022-12-20T15:18:42.749Z,8.19
2022-12-20T15:21:18.305Z,7.88
2022-12-20T15:23:48.057Z,7.65
2022-12-20T15:26:16.381Z,7.52
2022-12-20T15:28:42.688Z,7.49
2022-12-20T15:31:14.601Z,7.39
2022-12-20T15:33:42.912Z,7.30
2022-12-20T15:36:21.847Z,7.39
2022-12-20T15:41:37.470Z,7.47
2022-12-20T15:44:11.900Z,8.22
2022-12-20T15:46:38.701Z,7.94
2022-12-20T15:49:05.294Z,7.72
2022-12-20T15:51:35.103Z,7.59
2022-12-20T15:54:06.901Z,7.40
2022-12-20T15:56:33.320Z,7.28
2022-12-20T15:59:00.304Z,7.18
2022-12-20T16:01:40.738Z,7.05
2022-12-20T16:04:13.221Z,7.13
2022-12-20T16:06:39.631Z,7.05
2022-12-20T16:09:06.380Z,6.88
2022-12-20T16:11:32.730Z,6.97
2022-12-20T16:14:00.277Z,6.91
2022-12-20T16:16:32.551Z,7.44
2022-12-20T16:18:59.126Z,7.26
2022-12-20T16:21:41.549Z,7.23
2022-12-20T16:24:13.522Z,7.08
2022-12-20T16:26:39.971Z,7.01
2022-12-20T16:29:06.832Z,6.90
2022-12-20T16:31:36.552Z,6.95
2022-12-20T16:34:12.116Z,6.80
2022-12-20T16:36:38.523Z,6.75
2022-12-20T16:39:04.873Z,7.54
2022-12-20T16:41:33.454Z,7.26
2022-12-20T16:44:02.289Z,7.53
2022-12-20T16:46:30.840Z,7.44
2022-12-20T16:48:59.900Z,7.38
2022-12-20T16:51:30.076Z,7.12
2022-12-20T16:54:18.679Z,6.94
2022-12-20T16:56:45.688Z,6.91
2022-12-20T16:59:22.019Z,6.77
2022-12-20T17:01:52.778Z,6.72
2022-12-20T17:04:20.235Z,6.56
2022-12-20T17:06:46.972Z,6.56
2022-12-20T17:11:58.572Z,6.95
2022-12-20T17:14:24.985Z,6.71
2022-12-20T17:16:51.380Z,6.44
2022-12-20T17:19:17.761Z,6.53
2022-12-20T17:24:30.543Z,6.45
2022-12-20T17:26:57.002Z,6.36
2022-12-20T17:29:23.315Z,6.48
2022-12-20T17:31:49.856Z,6.43
2022-12-20T17:34:22.152Z,6.44
2022-12-20T17:36:51.207Z,6.50
2022-12-20T17:39:17.628Z,6.60
2022-12-20T17:41:44.930Z,7.29
2022-12-20T17:44:23.033Z,7.06
2022-12-20T17:46:50.440Z,6.90
2022-12-20T17:49:16.724Z,6.93
2022-12-20T17:51:43.785Z,7.03
2022-12-20T17:54:21.683Z,7.31
2022-12-20T17:56:48.817Z,7.28
2022-12-20T17:59:15.696Z,6.99
2022-12-20T18:01:43.399Z,6.93
2022-12-20T18:04:15.914Z,6.87
2022-12-20T18:06:44.490Z,7.02
2022-12-20T18:09:16.840Z,6.99
2022-12-20T18:11:43.216Z,7.08
2022-12-20T18:14:10.280Z,6.98
2022-12-20T18:16:36.992Z,6.81
2022-12-20T18:19:03.326Z,6.79
2022-12-20T18:21:29.677Z,6.76
2022-12-20T18:23:56.393Z,6.77
2022-12-20T18:26:25.766Z,6.88
2022-12-20T18:28:57.551Z,7.41
2022-12-20T18:31:26.099Z,7.38
2022-12-20T18:33:58.089Z,7.16
2022-12-20T18:36:27.584Z,7.21
2022-12-20T18:38:54.899Z,7.13
2022-12-20T18:41:23.845Z,7.39
2022-12-20T18:43:51.639Z,7.58
2022-12-20T18:46:20.460Z,7.69
2022-12-20T18:48:47.282Z,7.54
2022-12-20T18:51:16.486Z,7.27
2022-12-20T18:53:44.675Z,6.98
2022-12-20T18:56:14.261Z,7.61
2022-12-20T18:58:42.016Z,7.38
2022-12-20T19:01:14.282Z,7.49
2022-12-20T19:03:40.819Z,7.43
2022-12-20T19:06:07.732Z,7.44
2022-12-20T19:08:34.297Z,7.52
2022-12-20T19:11:05.969Z,7.82
2022-12-20T19:13:32.359Z,7.50
2022-12-20T19:16:04.409Z,7.74
2022-12-20T19:18:30.939Z,7.65
2022-12-20T19:21:13.151Z,7.43
2022-12-20T19:23:41.818Z,7.36
2022-12-20T19:26:11.560Z,7.67
2022-12-20T19:28:38.856Z,7.86
2022-12-20T19:31:11.945Z,7.63
2022-12-20T19:33:41.492Z,7.68
2022-12-20T19:36:16.664Z,7.88
2022-12-20T19:38:44.683Z,7.65
2022-12-20T19:41:11.439Z,7.87
2022-12-20T19:43:37.969Z,7.73
2022-12-20T19:46:04.483Z,7.79
2022-12-20T19:48:32.486Z,7.94
2022-12-20T19:51:07.944Z,7.68
2022-12-20T19:53:34.223Z,7.48
2022-12-20T19:56:00.667Z,7.23
2022-12-20T19:58:27.059Z,7.02
2022-12-20T20:00:53.450Z,6.93
2022-12-20T20:03:19.892Z,7.41
2022-12-20T20:05:46.408Z,7.28
2022-12-20T20:08:12.753Z,7.26
2022-12-20T20:10:39.384Z,7.22
2022-12-20T20:13:05.677Z,7.19
2022-12-20T20:15:32.026Z,7.43
2022-12-20T20:17:58.530Z,7.57
2022-12-20T20:20:25.003Z,8.00
2022-12-20T20:22:51.315Z,8.30
2022-12-20T20:25:17.849Z,7.84
2022-12-20T20:27:45.182Z,7.86
2022-12-20T20:30:12.543Z,7.72
2022-12-20T20:32:38.928Z,7.40
2022-12-20T20:35:05.653Z,7.27
2022-12-20T20:37:32.010Z,7.22
2022-12-20T20:39:58.472Z,7.05
2022-12-20T20:42:24.778Z,6.92
2022-12-20T20:44:51.241Z,6.81
2022-12-20T20:47:17.556Z,6.82
2022-12-20T20:49:43.847Z,6.69
2022-12-20T20:52:10.268Z,6.65
2022-12-20T20:54:36.584Z,6.59
2022-12-20T20:57:03.029Z,6.48
2022-12-20T20:59:29.535Z,6.56
2022-12-20T21:01:56.002Z,7.29
2022-12-20T21:04:22.385Z,7.15
2022-12-20T21:06:48.773Z,7.06
2022-12-20T21:09:15.242Z,7.72
2022-12-20T21:11:41.820Z,7.29
2022-12-20T21:14:08.544Z,7.23
2022-12-20T21:16:35.349Z,7.53
2022-12-20T21:19:01.749Z,7.31
2022-12-20T21:21:28.671Z,7.38
2022-12-20T21:23:55.609Z,7.45
2022-12-20T21:26:23.383Z,7.24
2022-12-20T21:28:49.807Z,7.35
2022-12-20T21:31:18.351Z,7.29
2022-12-20T21:33:45.242Z,7.05
2022-12-20T21:36:14.419Z,7.02
2022-12-20T21:38:41.369Z,7.05
2022-12-20T21:41:11.056Z,7.18
2022-12-20T21:43:37.672Z,6.99
2022-12-20T21:46:04.717Z,7.09
2022-12-20T21:48:31.509Z,7.07
2022-12-20T21:51:02.713Z,6.89
2022-12-20T21:53:29.997Z,7.01
2022-12-20T21:55:57.617Z,7.05
2022-12-20T21:58:24.627Z,6.90
2022-12-20T22:00:55.749Z,6.95
2022-12-20T22:03:23.995Z,7.02
2022-12-20T22:05:52.761Z,6.89
2022-12-20T22:08:20.333Z,6.85
2022-12-20T22:10:47.093Z,7.40
2022-12-20T22:13:13.424Z,7.01
2022-12-20T22:15:40.322Z,7.05
2022-12-20T22:18:07.890Z,7.11
2022-12-20T22:20:35.095Z,6.82
2022-12-20T22:23:02.162Z,6.72
2022-12-20T22:25:28.733Z,6.84
2022-12-20T22:27:55.886Z,7.01
2022-12-20T22:30:22.316Z,7.21
2022-12-20T22:32:48.610Z,6.86
2022-12-20T22:35:20.647Z,6.86
2022-12-20T22:37:49.056Z,6.86
2022-12-20T22:40:15.548Z,6.70
2022-12-20T22:42:41.854Z,6.55
2022-12-20T22:45:08.862Z,6.48
2022-12-20T22:47:35.329Z,6.60
2022-12-20T22:50:01.651Z,6.53
2022-12-20T22:52:28.031Z,6.50
2022-12-20T22:54:54.326Z,6.56
2022-12-20T22:57:20.663Z,6.85
2022-12-20T22:59:47.187Z,6.66
2022-12-20T23:02:13.714Z,6.65
2022-12-20T23:04:40.247Z,6.62
2022-12-20T23:07:06.549Z,6.72
2022-12-20T23:09:33.488Z,6.58
2022-12-20T23:12:00.035Z,6.58
2022-12-20T23:14:26.379Z,6.82
2022-12-20T23:16:52.848Z,6.80
2022-12-20T23:19:19.181Z,6.64
2022-12-20T23:21:45.630Z,6.81
2022-12-20T23:24:12.695Z,6.71
2022-12-20T23:26:40.416Z,6.86
2022-12-20T23:29:07.771Z,6.87
2022-12-20T23:31:34.207Z,6.66
2022-12-20T23:34:01.174Z,7.26
2022-12-20T23:36:28.377Z,6.90
2022-12-20T23:38:54.929Z,6.78
2022-12-20T23:41:21.321Z,6.65
2022-12-20T23:43:47.910Z,6.87
2022-12-20T23:46:16.249Z,6.92
2022-12-20T23:48:43.354Z,6.93
2022-12-20T23:51:10.257Z,7.05
2022-12-20T23:53:37.257Z,6.74
2022-12-20T23:56:15.998Z,6.56
2022-12-20T23:58:43.500Z,6.45
